sensor_id;sensor_type;location;lat;lon;timestamp;P1;durP1;ratioP1;P2;durP2;ratioP2
12980;SDS011;6555;50.468;8.480;2023-01-04T00:02:19;2.73;;;2.40;;
12980;SDS011;6555;50.468;8.480;2023-01-04T00:07:23;3.13;;;2.27;;
12980;SDS011;6555;50.468;8.480;2023-01-04T00:12:26;3.90;;;2.33;;
12980;SDS011;6555;50.468;8.480;2023-01-04T00:17:30;2.70;;;2.10;;
12980;SDS011;6555;50.468;8.480;2023-01-04T00:22:34;2.53;;;1.80;;
12980;SDS011;6555;50.468;8.480;2023-01-04T00:27:38;3.07;;;2.03;;
12980;SDS011;6555;50.468;8.480;2023-01-04T00:32:40;3.83;;;2.23;;
12980;SDS011;6555;50.468;8.480;2023-01-04T00:37:45;5.27;;;2.20;;
12980;SDS011;6555;50.468;8.480;2023-01-04T00:42:52;3.70;;;2.30;;
12980;SDS011;6555;50.468;8.480;2023-01-04T00:47:55;2.27;;;1.60;;
12980;SDS011;6555;50.468;8.480;2023-01-04T00:52:59;5.50;;;2.03;;
12980;SDS011;6555;50.468;8.480;2023-01-04T00:58:02;3.37;;;2.10;;
12980;SDS011;6555;50.468;8.480;2023-01-04T01:03:06;4.20;;;2.00;;
12980;SDS011;6555;50.468;8.480;2023-01-04T01:08:11;1.73;;;1.57;;
12980;SDS011;6555;50.468;8.480;2023-01-04T01:13:30;2.67;;;1.70;;
12980;SDS011;6555;50.468;8.480;2023-01-04T01:18:34;2.80;;;1.90;;
12980;SDS011;6555;50.468;8.480;2023-01-04T01:23:40;3.50;;;1.93;;
12980;SDS011;6555;50.468;8.480;2023-01-04T01:28:44;2.27;;;1.70;;
12980;SDS011;6555;50.468;8.480;2023-01-04T01:33:47;2.53;;;1.80;;
12980;SDS011;6555;50.468;8.480;2023-01-04T01:38:52;2.53;;;1.40;;
12980;SDS011;6555;50.468;8.480;2023-01-04T01:43:57;2.40;;;1.40;;
12980;SDS011;6555;50.468;8.480;2023-01-04T01:49:02;3.07;;;1.90;;
12980;SDS011;6555;50.468;8.480;2023-01-04T01:54:12;3.73;;;1.93;;
12980;SDS011;6555;50.468;8.480;2023-01-04T01:59:20;3.40;;;1.67;;
12980;SDS011;6555;50.468;8.480;2023-01-04T02:04:24;2.00;;;1.80;;
12980;SDS011;6555;50.468;8.480;2023-01-04T02:09:29;2.97;;;2.10;;
12980;SDS011;6555;50.468;8.480;2023-01-04T02:14:33;2.10;;;1.90;;
12980;SDS011;6555;50.468;8.480;2023-01-04T02:19:41;2.83;;;2.10;;
12980;SDS011;6555;50.468;8.480;2023-01-04T02:31:02;2.77;;;2.20;;
12980;SDS011;6555;50.468;8.480;2023-01-04T02:36:18;4.00;;;2.07;;
12980;SDS011;6555;50.468;8.480;2023-01-04T02:41:28;2.60;;;2.03;;
12980;SDS011;6555;50.468;8.480;2023-01-04T02:46:39;3.00;;;2.23;;
12980;SDS011;6555;50.468;8.480;2023-01-04T02:51:45;3.43;;;2.00;;
12980;SDS011;6555;50.468;8.480;2023-01-04T02:56:52;3.27;;;2.30;;
12980;SDS011;6555;50.468;8.480;2023-01-04T03:02:11;4.57;;;2.50;;
12980;SDS011;6555;50.468;8.480;2023-01-04T03:07:45;4.70;;;2.43;;
12980;SDS011;6555;50.468;8.480;2023-01-04T03:12:56;4.60;;;2.90;;
12980;SDS011;6555;50.468;8.480;2023-01-04T03:18:09;5.40;;;2.80;;
12980;SDS011;6555;50.468;8.480;2023-01-04T03:23:18;4.70;;;2.93;;
12980;SDS011;6555;50.468;8.480;2023-01-04T03:28:42;3.93;;;3.03;;
12980;SDS011;6555;50.468;8.480;2023-01-04T03:34:05;4.73;;;2.87;;
12980;SDS011;6555;50.468;8.480;2023-01-04T03:39:28;3.73;;;2.90;;
12980;SDS011;6555;50.468;8.480;2023-01-04T03:44:58;4.00;;;2.47;;
12980;SDS011;6555;50.468;8.480;2023-01-04T03:50:27;2.77;;;2.07;;
12980;SDS011;6555;50.468;8.480;2023-01-04T03:55:33;2.90;;;2.30;;
12980;SDS011;6555;50.468;8.480;2023-01-04T04:00:37;3.03;;;2.17;;
12980;SDS011;6555;50.468;8.480;2023-01-04T04:05:42;2.50;;;2.30;;
12980;SDS011;6555;50.468;8.480;2023-01-04T04:11:04;3.30;;;2.20;;
12980;SDS011;6555;50.468;8.480;2023-01-04T04:16:20;4.30;;;2.43;;
12980;SDS011;6555;50.468;8.480;2023-01-04T04:21:25;2.50;;;1.87;;
12980;SDS011;6555;50.468;8.480;2023-01-04T04:26:28;2.67;;;2.00;;
12980;SDS011;6555;50.468;8.480;2023-01-04T04:31:31;2.40;;;2.10;;
12980;SDS011;6555;50.468;8.480;2023-01-04T04:36:35;3.90;;;2.23;;
12980;SDS011;6555;50.468;8.480;2023-01-04T04:41:38;2.50;;;1.97;;
12980;SDS011;6555;50.468;8.480;2023-01-04T04:46:42;1.97;;;1.73;;
12980;SDS011;6555;50.468;8.480;2023-01-04T04:51:47;4.70;;;2.33;;
12980;SDS011;6555;50.468;8.480;2023-01-04T04:56:50;3.23;;;2.17;;
12980;SDS011;6555;50.468;8.480;2023-01-04T05:01:53;2.70;;;2.20;;
12980;SDS011;6555;50.468;8.480;2023-01-04T05:06:58;3.00;;;2.20;;
12980;SDS011;6555;50.468;8.480;2023-01-04T05:12:01;4.60;;;2.47;;
12980;SDS011;6555;50.468;8.480;2023-01-04T05:17:21;2.73;;;2.07;;
12980;SDS011;6555;50.468;8.480;2023-01-04T05:22:25;3.80;;;2.30;;
12980;SDS011;6555;50.468;8.480;2023-01-04T05:27:28;4.17;;;3.00;;
12980;SDS011;6555;50.468;8.480;2023-01-04T05:32:31;2.50;;;2.30;;
12980;SDS011;6555;50.468;8.480;2023-01-04T05:37:36;4.23;;;2.73;;
12980;SDS011;6555;50.468;8.480;2023-01-04T05:42:39;3.40;;;2.60;;
12980;SDS011;6555;50.468;8.480;2023-01-04T05:47:42;3.60;;;2.50;;
12980;SDS011;6555;50.468;8.480;2023-01-04T05:52:46;2.80;;;2.60;;
12980;SDS011;6555;50.468;8.480;2023-01-04T05:57:50;3.03;;;2.60;;
12980;SDS011;6555;50.468;8.480;2023-01-04T06:02:53;4.07;;;3.10;;
12980;SDS011;6555;50.468;8.480;2023-01-04T06:07:58;4.37;;;2.70;;
12980;SDS011;6555;50.468;8.480;2023-01-04T06:13:01;4.37;;;2.90;;
12980;SDS011;6555;50.468;8.480;2023-01-04T06:18:05;2.40;;;2.20;;
12980;SDS011;6555;50.468;8.480;2023-01-04T06:23:15;3.30;;;2.50;;
12980;SDS011;6555;50.468;8.480;2023-01-04T06:28:18;3.13;;;2.40;;
12980;SDS011;6555;50.468;8.480;2023-01-04T06:33:21;3.07;;;2.30;;
12980;SDS011;6555;50.468;8.480;2023-01-04T06:38:25;4.43;;;2.50;;
12980;SDS011;6555;50.468;8.480;2023-01-04T06:43:28;3.80;;;2.47;;
12980;SDS011;6555;50.468;8.480;2023-01-04T06:48:31;3.30;;;2.30;;
12980;SDS011;6555;50.468;8.480;2023-01-04T06:53:35;3.47;;;2.60;;
12980;SDS011;6555;50.468;8.480;2023-01-04T06:58:38;3.20;;;2.60;;
12980;SDS011;6555;50.468;8.480;2023-01-04T07:03:41;2.67;;;2.10;;
12980;SDS011;6555;50.468;8.480;2023-01-04T07:08:46;3.87;;;2.57;;
12980;SDS011;6555;50.468;8.480;2023-01-04T07:13:49;2.20;;;2.00;;
12980;SDS011;6555;50.468;8.480;2023-01-04T07:18:53;3.37;;;2.23;;
12980;SDS011;6555;50.468;8.480;2023-01-04T07:23:57;3.30;;;2.50;;
12980;SDS011;6555;50.468;8.480;2023-01-04T07:29:00;5.50;;;2.47;;
12980;SDS011;6555;50.468;8.480;2023-01-04T07:34:18;1.70;;;1.60;;
12980;SDS011;6555;50.468;8.480;2023-01-04T07:39:24;2.47;;;1.90;;
12980;SDS011;6555;50.468;8.480;2023-01-04T07:44:27;1.70;;;1.60;;
12980;SDS011;6555;50.468;8.480;2023-01-04T07:49:30;2.53;;;1.70;;
12980;SDS011;6555;50.468;8.480;2023-01-04T07:54:34;2.10;;;1.67;;
12980;SDS011;6555;50.468;8.480;2023-01-04T07:59:37;4.07;;;2.40;;
12980;SDS011;6555;50.468;8.480;2023-01-04T08:04:40;2.00;;;1.80;;
12980;SDS011;6555;50.468;8.480;2023-01-04T08:09:45;2.00;;;1.43;;
12980;SDS011;6555;50.468;8.480;2023-01-04T08:14:48;1.97;;;1.70;;
12980;SDS011;6555;50.468;8.480;2023-01-04T08:19:51;1.63;;;1.30;;
12980;SDS011;6555;50.468;8.480;2023-01-04T08:24:55;2.00;;;1.30;;
12980;SDS011;6555;50.468;8.480;2023-01-04T08:29:58;3.03;;;1.90;;
12980;SDS011;6555;50.468;8.480;2023-01-04T08:35:01;2.03;;;1.50;;
12980;SDS011;6555;50.468;8.480;2023-01-04T08:40:07;2.10;;;1.40;;
12980;SDS011;6555;50.468;8.480;2023-01-04T08:45:11;2.00;;;1.30;;
12980;SDS011;6555;50.468;8.480;2023-01-04T08:50:14;1.93;;;1.63;;
12980;SDS011;6555;50.468;8.480;2023-01-04T08:55:22;1.53;;;1.10;;
12980;SDS011;6555;50.468;8.480;2023-01-04T09:00:25;2.80;;;1.33;;
12980;SDS011;6555;50.468;8.480;2023-01-04T09:05:28;1.43;;;1.10;;
12980;SDS011;6555;50.468;8.480;2023-01-04T09:10:36;1.77;;;1.20;;
12980;SDS011;6555;50.468;8.480;2023-01-04T09:15:40;1.40;;;1.20;;
12980;SDS011;6555;50.468;8.480;2023-01-04T09:20:43;1.30;;;1.20;;
12980;SDS011;6555;50.468;8.480;2023-01-04T09:25:47;1.30;;;1.20;;
12980;SDS011;6555;50.468;8.480;2023-01-04T09:30:50;1.60;;;1.10;;
12980;SDS011;6555;50.468;8.480;2023-01-04T09:35:53;1.20;;;0.90;;
12980;SDS011;6555;50.468;8.480;2023-01-04T09:41:00;1.20;;;1.00;;
12980;SDS011;6555;50.468;8.480;2023-01-04T09:46:13;1.13;;;1.03;;
12980;SDS011;6555;50.468;8.480;2023-01-04T09:51:25;1.20;;;1.10;;
12980;SDS011;6555;50.468;8.480;2023-01-04T09:56:35;1.37;;;0.97;;
12980;SDS011;6555;50.468;8.480;2023-01-04T10:01:40;1.33;;;1.00;;
12980;SDS011;6555;50.468;8.480;2023-01-04T10:06:46;0.63;;;0.63;;
12980;SDS011;6555;50.468;8.480;2023-01-04T10:11:55;2.13;;;0.90;;
12980;SDS011;6555;50.468;8.480;2023-01-04T10:17:10;1.00;;;0.90;;
12980;SDS011;6555;50.468;8.480;2023-01-04T10:22:43;0.80;;;0.80;;
12980;SDS011;6555;50.468;8.480;2023-01-04T10:27:55;1.20;;;1.10;;
12980;SDS011;6555;50.468;8.480;2023-01-04T10:33:12;0.67;;;0.67;;
12980;SDS011;6555;50.468;8.480;2023-01-04T10:38:17;1.03;;;0.90;;
12980;SDS011;6555;50.468;8.480;2023-01-04T10:43:27;1.37;;;0.87;;
12980;SDS011;6555;50.468;8.480;2023-01-04T10:48:57;0.70;;;0.70;;
12980;SDS011;6555;50.468;8.480;2023-01-04T10:54:10;1.00;;;0.90;;
12980;SDS011;6555;50.468;8.480;2023-01-04T10:59:28;0.60;;;0.60;;
12980;SDS011;6555;50.468;8.480;2023-01-04T11:04:38;0.67;;;0.67;;
12980;SDS011;6555;50.468;8.480;2023-01-04T11:09:47;1.60;;;0.70;;
12980;SDS011;6555;50.468;8.480;2023-01-04T11:14:54;0.70;;;0.70;;
12980;SDS011;6555;50.468;8.480;2023-01-04T11:19:57;0.70;;;0.70;;
12980;SDS011;6555;50.468;8.480;2023-01-04T11:25:00;0.90;;;0.90;;
12980;SDS011;6555;50.468;8.480;2023-01-04T11:30:30;0.70;;;0.70;;
12980;SDS011;6555;50.468;8.480;2023-01-04T11:35:42;1.50;;;1.00;;
12980;SDS011;6555;50.468;8.480;2023-01-04T11:40:56;0.70;;;0.70;;
12980;SDS011;6555;50.468;8.480;2023-01-04T11:46:03;0.77;;;0.70;;
12980;SDS011;6555;50.468;8.480;2023-01-04T11:51:18;0.50;;;0.50;;
12980;SDS011;6555;50.468;8.480;2023-01-04T11:56:34;0.73;;;0.73;;
12980;SDS011;6555;50.468;8.480;2023-01-04T12:01:40;1.27;;;0.70;;
12980;SDS011;6555;50.468;8.480;2023-01-04T12:06:47;0.80;;;0.70;;
12980;SDS011;6555;50.468;8.480;2023-01-04T12:11:53;0.57;;;0.53;;
12980;SDS011;6555;50.468;8.480;2023-01-04T12:17:00;0.40;;;0.40;;
12980;SDS011;6555;50.468;8.480;2023-01-04T12:22:13;0.77;;;0.77;;
12980;SDS011;6555;50.468;8.480;2023-01-04T12:27:22;0.60;;;0.40;;
12980;SDS011;6555;50.468;8.480;2023-01-04T12:32:43;0.40;;;0.40;;
12980;SDS011;6555;50.468;8.480;2023-01-04T12:37:47;1.77;;;0.60;;
12980;SDS011;6555;50.468;8.480;2023-01-04T12:48:32;0.47;;;0.47;;
12980;SDS011;6555;50.468;8.480;2023-01-04T12:53:57;1.57;;;0.63;;
12980;SDS011;6555;50.468;8.480;2023-01-04T12:59:06;0.77;;;0.77;;
12980;SDS011;6555;50.468;8.480;2023-01-04T13:04:35;1.10;;;0.90;;
12980;SDS011;6555;50.468;8.480;2023-01-04T13:09:42;2.23;;;1.10;;
12980;SDS011;6555;50.468;8.480;2023-01-04T13:14:52;0.80;;;0.80;;
12980;SDS011;6555;50.468;8.480;2023-01-04T13:20:12;0.90;;;0.90;;
12980;SDS011;6555;50.468;8.480;2023-01-04T13:25:17;0.57;;;0.57;;
12980;SDS011;6555;50.468;8.480;2023-01-04T13:30:28;0.60;;;0.60;;
12980;SDS011;6555;50.468;8.480;2023-01-04T13:35:35;0.77;;;0.67;;
12980;SDS011;6555;50.468;8.480;2023-01-04T13:40:42;0.70;;;0.63;;
12980;SDS011;6555;50.468;8.480;2023-01-04T13:46:00;0.60;;;0.60;;
12980;SDS011;6555;50.468;8.480;2023-01-04T13:51:16;1.27;;;0.80;;
12980;SDS011;6555;50.468;8.480;2023-01-04T13:56:29;0.97;;;0.73;;
12980;SDS011;6555;50.468;8.480;2023-01-04T14:01:34;1.70;;;0.80;;
12980;SDS011;6555;50.468;8.480;2023-01-04T14:06:44;1.10;;;0.70;;
12980;SDS011;6555;50.468;8.480;2023-01-04T14:11:50;0.50;;;0.50;;
12980;SDS011;6555;50.468;8.480;2023-01-04T14:17:22;1.20;;;0.97;;
12980;SDS011;6555;50.468;8.480;2023-01-04T14:27:51;1.03;;;0.80;;
12980;SDS011;6555;50.468;8.480;2023-01-04T14:32:54;0.70;;;0.70;;
12980;SDS011;6555;50.468;8.480;2023-01-04T14:38:02;1.03;;;0.73;;
12980;SDS011;6555;50.468;8.480;2023-01-04T14:48:35;0.60;;;0.60;;
12980;SDS011;6555;50.468;8.480;2023-01-04T14:53:40;1.10;;;0.80;;
12980;SDS011;6555;50.468;8.480;2023-01-04T14:58:43;0.63;;;0.63;;
12980;SDS011;6555;50.468;8.480;2023-01-04T15:03:46;0.53;;;0.40;;
12980;SDS011;6555;50.468;8.480;2023-01-04T15:08:51;0.40;;;0.40;;
12980;SDS011;6555;50.468;8.480;2023-01-04T15:13:54;0.47;;;0.40;;
12980;SDS011;6555;50.468;8.480;2023-01-04T15:18:57;0.90;;;0.60;;
12980;SDS011;6555;50.468;8.480;2023-01-04T15:24:01;0.73;;;0.73;;
12980;SDS011;6555;50.468;8.480;2023-01-04T15:29:04;0.50;;;0.50;;
12980;SDS011;6555;50.468;8.480;2023-01-04T15:34:09;1.07;;;0.67;;
12980;SDS011;6555;50.468;8.480;2023-01-04T15:39:13;0.50;;;0.50;;
12980;SDS011;6555;50.468;8.480;2023-01-04T15:44:17;0.70;;;0.70;;
12980;SDS011;6555;50.468;8.480;2023-01-04T15:49:20;0.50;;;0.50;;
12980;SDS011;6555;50.468;8.480;2023-01-04T15:54:24;0.60;;;0.60;;
12980;SDS011;6555;50.468;8.480;2023-01-04T15:59:28;0.50;;;0.50;;
12980;SDS011;6555;50.468;8.480;2023-01-04T16:04:31;1.53;;;0.60;;
12980;SDS011;6555;50.468;8.480;2023-01-04T16:09:37;0.43;;;0.43;;
12980;SDS011;6555;50.468;8.480;2023-01-04T16:14:40;0.60;;;0.60;;
12980;SDS011;6555;50.468;8.480;2023-01-04T16:19:43;0.30;;;0.30;;
12980;SDS011;6555;50.468;8.480;2023-01-04T16:24:48;0.93;;;0.53;;
12980;SDS011;6555;50.468;8.480;2023-01-04T16:30:11;0.30;;;0.30;;
12980;SDS011;6555;50.468;8.480;2023-01-04T16:35:15;0.93;;;0.73;;
12980;SDS011;6555;50.468;8.480;2023-01-04T16:40:19;0.40;;;0.40;;
12980;SDS011;6555;50.468;8.480;2023-01-04T16:45:22;0.97;;;0.57;;
12980;SDS011;6555;50.468;8.480;2023-01-04T16:50:25;0.40;;;0.40;;
12980;SDS011;6555;50.468;8.480;2023-01-04T16:55:30;0.60;;;0.60;;
12980;SDS011;6555;50.468;8.480;2023-01-04T17:00:33;0.73;;;0.73;;
12980;SDS011;6555;50.468;8.480;2023-01-04T17:05:37;0.20;;;0.20;;
12980;SDS011;6555;50.468;8.480;2023-01-04T17:10:42;0.40;;;0.40;;
12980;SDS011;6555;50.468;8.480;2023-01-04T17:15:45;0.77;;;0.63;;
12980;SDS011;6555;50.468;8.480;2023-01-04T17:20:51;0.70;;;0.60;;
12980;SDS011;6555;50.468;8.480;2023-01-04T17:26:01;0.40;;;0.40;;
12980;SDS011;6555;50.468;8.480;2023-01-04T17:31:06;0.40;;;0.40;;
12980;SDS011;6555;50.468;8.480;2023-01-04T17:36:11;1.17;;;1.07;;
12980;SDS011;6555;50.468;8.480;2023-01-04T17:41:18;0.57;;;0.57;;
12980;SDS011;6555;50.468;8.480;2023-01-04T17:46:22;0.37;;;0.37;;
12980;SDS011;6555;50.468;8.480;2023-01-04T17:51:27;0.30;;;0.30;;
12980;SDS011;6555;50.468;8.480;2023-01-04T17:56:31;0.60;;;0.60;;
12980;SDS011;6555;50.468;8.480;2023-01-04T18:01:37;0.47;;;0.47;;
12980;SDS011;6555;50.468;8.480;2023-01-04T18:06:40;0.37;;;0.37;;
12980;SDS011;6555;50.468;8.480;2023-01-04T18:11:44;0.50;;;0.50;;
12980;SDS011;6555;50.468;8.480;2023-01-04T18:16:48;0.50;;;0.50;;
12980;SDS011;6555;50.468;8.480;2023-01-04T18:21:59;0.43;;;0.43;;
12980;SDS011;6555;50.468;8.480;2023-01-04T18:27:03;0.50;;;0.50;;
12980;SDS011;6555;50.468;8.480;2023-01-04T18:32:26;0.60;;;0.60;;
12980;SDS011;6555;50.468;8.480;2023-01-04T18:37:29;0.27;;;0.20;;
12980;SDS011;6555;50.468;8.480;2023-01-04T18:42:33;0.67;;;0.60;;
12980;SDS011;6555;50.468;8.480;2023-01-04T18:47:37;0.40;;;0.40;;
12980;SDS011;6555;50.468;8.480;2023-01-04T18:52:40;1.00;;;0.90;;
12980;SDS011;6555;50.468;8.480;2023-01-04T18:57:44;0.83;;;0.70;;
12980;SDS011;6555;50.468;8.480;2023-01-04T19:02:47;0.87;;;0.70;;
12980;SDS011;6555;50.468;8.480;2023-01-04T19:07:50;1.00;;;0.80;;
12980;SDS011;6555;50.468;8.480;2023-01-04T19:12:55;0.40;;;0.40;;
12980;SDS011;6555;50.468;8.480;2023-01-04T19:17:58;0.73;;;0.33;;
12980;SDS011;6555;50.468;8.480;2023-01-04T19:23:01;0.50;;;0.50;;
12980;SDS011;6555;50.468;8.480;2023-01-04T19:28:06;0.60;;;0.60;;
12980;SDS011;6555;50.468;8.480;2023-01-04T19:33:09;0.70;;;0.70;;
12980;SDS011;6555;50.468;8.480;2023-01-04T19:38:13;1.43;;;0.70;;
12980;SDS011;6555;50.468;8.480;2023-01-04T19:43:17;0.90;;;0.50;;
12980;SDS011;6555;50.468;8.480;2023-01-04T19:48:20;1.43;;;0.60;;
12980;SDS011;6555;50.468;8.480;2023-01-04T19:53:24;0.50;;;0.50;;
12980;SDS011;6555;50.468;8.480;2023-01-04T19:58:28;1.90;;;0.53;;
12980;SDS011;6555;50.468;8.480;2023-01-04T20:03:32;0.83;;;0.83;;
12980;SDS011;6555;50.468;8.480;2023-01-04T20:08:35;1.07;;;0.80;;
12980;SDS011;6555;50.468;8.480;2023-01-04T20:13:40;1.43;;;0.70;;
12980;SDS011;6555;50.468;8.480;2023-01-04T20:18:42;2.57;;;1.30;;
12980;SDS011;6555;50.468;8.480;2023-01-04T20:23:45;0.93;;;0.67;;
12980;SDS011;6555;50.468;8.480;2023-01-04T20:28:50;2.53;;;1.00;;
12980;SDS011;6555;50.468;8.480;2023-01-04T20:33:54;2.27;;;1.30;;
12980;SDS011;6555;50.468;8.480;2023-01-04T20:38:57;1.63;;;0.80;;
12980;SDS011;6555;50.468;8.480;2023-01-04T20:44:04;3.20;;;1.20;;
12980;SDS011;6555;50.468;8.480;2023-01-04T20:49:07;2.47;;;0.80;;
12980;SDS011;6555;50.468;8.480;2023-01-04T20:54:10;1.93;;;1.03;;
12980;SDS011;6555;50.468;8.480;2023-01-04T20:59:14;1.30;;;0.93;;
12980;SDS011;6555;50.468;8.480;2023-01-04T21:04:18;2.87;;;1.10;;
12980;SDS011;6555;50.468;8.480;2023-01-04T21:09:21;1.37;;;0.90;;
12980;SDS011;6555;50.468;8.480;2023-01-04T21:14:25;4.60;;;1.30;;
12980;SDS011;6555;50.468;8.480;2023-01-04T21:19:31;3.20;;;1.33;;
12980;SDS011;6555;50.468;8.480;2023-01-04T21:24:34;2.60;;;1.27;;
12980;SDS011;6555;50.468;8.480;2023-01-04T21:29:39;4.67;;;1.30;;
12980;SDS011;6555;50.468;8.480;2023-01-04T21:34:42;4.50;;;1.50;;
12980;SDS011;6555;50.468;8.480;2023-01-04T21:39:45;3.33;;;1.20;;
12980;SDS011;6555;50.468;8.480;2023-01-04T21:44:49;3.93;;;1.47;;
12980;SDS011;6555;50.468;8.480;2023-01-04T21:49:53;2.57;;;1.30;;
12980;SDS011;6555;50.468;8.480;2023-01-04T21:54:56;4.30;;;1.87;;
12980;SDS011;6555;50.468;8.480;2023-01-04T22:00:00;3.93;;;1.40;;
12980;SDS011;6555;50.468;8.480;2023-01-04T22:05:05;3.23;;;1.50;;
12980;SDS011;6555;50.468;8.480;2023-01-04T22:10:08;2.77;;;1.37;;
12980;SDS011;6555;50.468;8.480;2023-01-04T22:15:12;2.03;;;1.20;;
12980;SDS011;6555;50.468;8.480;2023-01-04T22:20:16;5.23;;;1.60;;
12980;SDS011;6555;50.468;8.480;2023-01-04T22:25:19;3.97;;;1.47;;
12980;SDS011;6555;50.468;8.480;2023-01-04T22:30:23;2.37;;;1.10;;
12980;SDS011;6555;50.468;8.480;2023-01-04T22:35:26;2.40;;;1.07;;
12980;SDS011;6555;50.468;8.480;2023-01-04T22:40:29;2.80;;;1.20;;
12980;SDS011;6555;50.468;8.480;2023-01-04T22:45:34;1.77;;;1.20;;
12980;SDS011;6555;50.468;8.480;2023-01-04T22:50:37;4.43;;;1.70;;
12980;SDS011;6555;50.468;8.480;2023-01-04T22:55:40;2.90;;;1.10;;
12980;SDS011;6555;50.468;8.480;2023-01-04T23:01:05;2.50;;;1.00;;
12980;SDS011;6555;50.468;8.480;2023-01-04T23:06:10;1.77;;;1.00;;
12980;SDS011;6555;50.468;8.480;2023-01-04T23:11:15;0.70;;;0.70;;
12980;SDS011;6555;50.468;8.480;2023-01-04T23:16:20;1.40;;;1.00;;
12980;SDS011;6555;50.468;8.480;2023-01-04T23:21:32;2.37;;;0.87;;
12980;SDS011;6555;50.468;8.480;2023-01-04T23:26:36;1.33;;;0.67;;
12980;SDS011;6555;50.468;8.480;2023-01-04T23:31:40;1.00;;;0.60;;
12980;SDS011;6555;50.468;8.480;2023-01-04T23:36:43;2.10;;;0.90;;
12980;SDS011;6555;50.468;8.480;2023-01-04T23:41:46;0.87;;;0.53;;
12980;SDS011;6555;50.468;8.480;2023-01-04T23:46:51;1.07;;;0.87;;
12980;SDS011;6555;50.468;8.480;2023-01-04T23:51:55;1.57;;;0.77;;
12980;SDS011;6555;50.468;8.480;2023-01-04T23:56:59;1.93;;;0.60;;
